Time;durP1;ratioP1;P1;durP2;ratioP2;P2;SDS_P1;SDS_P2;PMS_P1;PMS_P2;Temp;Humidity;BMP_temperature;BMP_pressure;BME280_temperature;BME280_humidity;BME280_pressure;Samples;Min_cycle;Max_cycle;Signal;HPM_P1;HPM_P2
2023/09/07 00:02:00;;;;;;;;;;;18.90;60.90;;;;;;5094728;28;19969;-69
2023/09/07 00:04:26;;;;;;;;;;;18.80;61.20;;;;;;5095391;28;19920;-70
2023/09/07 00:06:52;;;;;;;;;;;18.70;61.80;;;;;;5093834;28;20300;-70
2023/09/07 00:09:18;;;;;;;;;;;18.70;61.60;;;;;;5095669;28;19926;-69
2023/09/07 00:12:03;;;;;;;;;;;18.70;61.70;;;;;;5094755;28;20383;-70
2023/09/07 00:14:29;;;;;;;;;;;18.60;61.60;;;;;;5094294;28;19920;-69
2023/09/07 00:16:55;;;;;;;;;;;18.70;61.70;;;;;;5095142;28;19916;-70
2023/09/07 00:19:20;;;;;;;;;;;18.60;62.10;;;;;;5094287;28;20027;-69
2023/09/07 00:21:46;;;;;;;;;;;18.50;63.00;;;;;;5093122;28;19922;-70
2023/09/07 00:24:12;;;;;;;;;;;18.50;63.00;;;;;;5094036;28;19926;-70
2023/09/07 00:26:38;;;;;;;;;;;18.50;63.00;;;;;;5093427;28;19919;-70
2023/09/07 00:29:04;;;;;;;;;;;18.40;63.00;;;;;;5094924;28;19920;-70
2023/09/07 00:31:30;;;;;;;;;;;18.40;63.30;;;;;;5075917;28;19916;-70
2023/09/07 00:33:56;;;;;;;;;;;18.30;63.40;;;;;;5095010;28;19939;-70
2023/09/07 00:36:22;;;;;;;;;;;18.30;63.10;;;;;;5094540;28;19919;-70
2023/09/07 00:38:47;;;;;;;;;;;18.30;63.40;;;;;;5093853;28;20334;-69
2023/09/07 00:41:14;;;;;;;;;;;18.20;63.10;;;;;;5092660;28;20311;-70
2023/09/07 00:43:40;;;;;;;;;;;18.20;63.50;;;;;;5094945;28;19924;-70
2023/09/07 00:46:07;;;;;;;;;;;18.10;63.70;;;;;;5076323;28;20311;-71
2023/09/07 00:48:33;;;;;;;;;;;18.10;63.50;;;;;;5094956;28;19928;-70
2023/09/07 00:50:59;;;;;;;;;;;18.00;63.70;;;;;;5093560;28;19920;-70
2023/09/07 00:53:27;;;;;;;;;;;17.90;63.50;;;;;;5094861;28;19920;-70
2023/09/07 00:55:55;;;;;;;;;;;17.90;63.90;;;;;;5094140;28;20007;-70
2023/09/07 00:58:21;;;;;;;;;;;17.90;64.00;;;;;;5094734;28;20002;-70
2023/09/07 01:00:47;;;;;;;;;;;17.90;63.70;;;;;;5092374;28;19920;-70
2023/09/07 01:03:14;;;;;;;;;;;17.80;63.70;;;;;;5093293;28;19924;-69
2023/09/07 01:06:18;;;;;;;;;;;17.90;64.00;;;;;;5092697;28;20029;-70
2023/09/07 01:09:04;;;;;;;;;;;17.80;63.90;;;;;;5094682;28;20415;-70
2023/09/07 01:11:54;;;;;;;;;;;17.80;64.20;;;;;;5092205;28;19916;-69
2023/09/07 01:14:20;;;;;;;;;;;17.80;64.30;;;;;;5094434;28;20443;-69
2023/09/07 01:16:46;;;;;;;;;;;17.80;64.40;;;;;;5092979;28;19911;-70
2023/09/07 01:19:12;;;;;;;;;;;17.80;64.40;;;;;;5076000;28;20014;-69
2023/09/07 01:21:38;;;;;;;;;;;17.80;64.80;;;;;;5091904;28;20293;-69
2023/09/07 01:24:06;;;;;;;;;;;17.80;64.70;;;;;;5075891;28;20276;-70
2023/09/07 01:26:33;;;;;;;;;;;17.90;64.70;;;;;;5092275;28;19916;-69
2023/09/07 01:28:59;;;;;;;;;;;17.80;64.00;;;;;;5093712;28;19920;-69
2023/09/07 01:31:25;;;;;;;;;;;17.80;64.30;;;;;;5091774;28;19962;-69
2023/09/07 01:33:51;;;;;;;;;;;17.80;63.90;;;;;;5094235;28;19920;-70
2023/09/07 01:36:17;;;;;;;;;;;17.70;64.40;;;;;;5092694;28;20018;-70
2023/09/07 01:38:43;;;;;;;;;;;17.70;64.60;;;;;;5092385;28;20370;-69
2023/09/07 01:41:08;;;;;;;;;;;17.70;64.60;;;;;;5092865;28;19926;-70
2023/09/07 01:43:35;;;;;;;;;;;17.70;64.90;;;;;;5092525;28;19983;-70
2023/09/07 01:46:01;;;;;;;;;;;17.60;64.40;;;;;;5093232;28;20299;-70
2023/09/07 01:48:27;;;;;;;;;;;17.60;64.60;;;;;;5092275;28;19924;-70
2023/09/07 01:50:53;;;;;;;;;;;17.50;64.90;;;;;;5091236;28;19947;-70
2023/09/07 01:53:20;;;;;;;;;;;17.50;64.50;;;;;;5075262;28;20082;-70
2023/09/07 01:55:47;;;;;;;;;;;17.40;64.30;;;;;;5091740;28;20410;-69
2023/09/07 01:58:13;;;;;;;;;;;17.40;64.40;;;;;;5093182;28;19983;-69
2023/09/07 02:00:40;;;;;;;;;;;17.40;64.50;;;;;;5092265;28;19920;-70
2023/09/07 02:03:06;;;;;;;;;;;17.40;64.80;;;;;;5091947;28;19920;-70
2023/09/07 02:05:33;;;;;;;;;;;17.30;64.60;;;;;;5074659;28;19912;-69
2023/09/07 02:08:03;;;;;;;;;;;17.30;64.20;;;;;;5092036;28;19970;-69
2023/09/07 02:10:30;;;;;;;;;;;17.30;64.80;;;;;;5090666;28;19916;-70
2023/09/07 02:12:57;;;;;;;;;;;17.10;64.80;;;;;;5093297;28;19928;-70
2023/09/07 02:15:24;;;;;;;;;;;17.10;65.00;;;;;;5091526;28;19920;-69
2023/09/07 02:17:50;;;;;;;;;;;17.00;64.90;;;;;;5075176;28;19920;-69
2023/09/07 02:20:16;;;;;;;;;;;17.10;65.00;;;;;;5090778;28;20469;-69
2023/09/07 02:22:42;;;;;;;;;;;17.00;65.00;;;;;;5093472;28;19966;-69
2023/09/07 02:25:08;;;;;;;;;;;17.00;64.50;;;;;;5091255;28;19916;-69
2023/09/07 02:27:35;;;;;;;;;;;17.00;65.00;;;;;;5074518;28;19973;-70
2023/09/07 02:30:20;;;;;;;;;;;16.80;64.40;;;;;;5091481;28;20030;-70
2023/09/07 02:32:46;;;;;;;;;;;16.70;65.00;;;;;;5092622;28;20285;-69
2023/09/07 02:35:11;;;;;;;;;;;16.70;65.30;;;;;;5092511;28;19920;-69
2023/09/07 02:37:37;;;;;;;;;;;16.60;65.20;;;;;;5092775;28;20379;-70
2023/09/07 02:40:09;;;;;;;;;;;16.70;65.30;;;;;;5074223;28;19923;-69
2023/09/07 02:42:35;;;;;;;;;;;16.60;65.00;;;;;;5092712;28;19950;-69
2023/09/07 02:45:01;;;;;;;;;;;16.50;64.40;;;;;;5091179;28;19960;-70
2023/09/07 02:47:27;;;;;;;;;;;16.60;64.60;;;;;;5092122;28;20365;-69
2023/09/07 02:49:53;;;;;;;;;;;16.50;65.30;;;;;;5092612;28;19931;-69
2023/09/07 02:52:19;;;;;;;;;;;16.50;65.30;;;;;;5090255;28;19916;-69
2023/09/07 02:54:45;;;;;;;;;;;16.40;65.20;;;;;;5092860;28;20354;-69
2023/09/07 02:57:12;;;;;;;;;;;16.40;65.40;;;;;;5090548;28;20519;-69
2023/09/07 02:59:38;;;;;;;;;;;16.50;66.30;;;;;;5092805;28;19943;-70
2023/09/07 03:02:04;;;;;;;;;;;16.50;66.70;;;;;;5090223;28;20003;-70
2023/09/07 03:04:30;;;;;;;;;;;16.50;66.50;;;;;;5091203;28;19920;-69
2023/09/07 03:06:56;;;;;;;;;;;16.50;66.60;;;;;;5090587;28;19916;-69
2023/09/07 03:09:22;;;;;;;;;;;16.50;66.70;;;;;;5091207;28;20327;-69
2023/09/07 03:11:48;;;;;;;;;;;16.50;66.40;;;;;;5090297;28;19923;-70
2023/09/07 03:14:14;;;;;;;;;;;16.40;66.30;;;;;;5092375;28;19920;-69
2023/09/07 03:16:40;;;;;;;;;;;16.30;66.70;;;;;;5090518;28;19916;-69
2023/09/07 03:19:06;;;;;;;;;;;16.30;66.40;;;;;;5090915;28;19920;-70
2023/09/07 03:21:32;;;;;;;;;;;16.30;66.30;;;;;;5073300;28;19980;-69
2023/09/07 03:23:58;;;;;;;;;;;16.20;66.20;;;;;;5074233;28;20361;-69
2023/09/07 03:26:24;;;;;;;;;;;16.20;66.20;;;;;;5091571;28;19916;-70
2023/09/07 03:28:51;;;;;;;;;;;16.20;66.40;;;;;;5092169;28;19920;-70
2023/09/07 03:31:17;;;;;;;;;;;16.20;66.70;;;;;;5091234;28;20336;-70
2023/09/07 03:33:43;;;;;;;;;;;16.20;66.70;;;;;;5091071;28;19928;-70
2023/09/07 03:36:10;;;;;;;;;;;16.20;66.80;;;;;;5073653;28;19934;-69
2023/09/07 03:38:37;;;;;;;;;;;16.20;66.70;;;;;;5091046;28;19919;-69
2023/09/07 03:41:02;;;;;;;;;;;16.20;66.70;;;;;;5091096;28;19949;-70
2023/09/07 03:43:28;;;;;;;;;;;16.20;66.70;;;;;;5092194;28;20018;-69
2023/09/07 03:45:54;;;;;;;;;;;16.20;66.80;;;;;;5091622;28;19938;-70
2023/09/07 03:48:20;;;;;;;;;;;16.30;67.00;;;;;;5091844;28;19924;-70
2023/09/07 03:50:46;;;;;;;;;;;16.30;67.20;;;;;;5091054;28;20003;-69
2023/09/07 03:53:12;;;;;;;;;;;16.30;67.50;;;;;;5092060;28;19959;-70
2023/09/07 03:55:57;;;;;;;;;;;16.30;67.10;;;;;;5090194;28;20018;-70
2023/09/07 03:58:23;;;;;;;;;;;16.20;66.50;;;;;;5091816;28;19927;-70
2023/09/07 04:00:49;;;;;;;;;;;16.20;66.70;;;;;;5093140;28;19924;-70
2023/09/07 04:03:15;;;;;;;;;;;16.10;67.50;;;;;;5094246;28;19924;-69
2023/09/07 04:05:41;;;;;;;;;;;16.10;67.30;;;;;;5093886;28;20288;-70
2023/09/07 04:08:07;;;;;;;;;;;16.00;67.70;;;;;;5077197;28;19927;-70
2023/09/07 04:10:33;;;;;;;;;;;16.00;67.50;;;;;;5094381;28;19923;-69
2023/09/07 04:12:59;;;;;;;;;;;16.00;67.00;;;;;;5093976;28;19920;-70
2023/09/07 04:18:12;;;;;;;;;;;16.00;67.90;;;;;;5094482;28;19931;-69
2023/09/07 04:20:39;;;;;;;;;;;16.00;67.20;;;;;;5076419;28;19930;-70
2023/09/07 04:23:05;;;;;;;;;;;16.00;67.50;;;;;;5094135;28;19924;-69
2023/09/07 04:25:32;;;;;;;;;;;16.00;67.80;;;;;;5094686;28;20434;-69
2023/09/07 04:27:58;;;;;;;;;;;15.90;67.90;;;;;;5094998;28;19924;-69
2023/09/07 04:30:24;;;;;;;;;;;15.90;67.30;;;;;;5092779;28;19928;-69
2023/09/07 04:32:50;;;;;;;;;;;15.90;67.90;;;;;;5095201;28;19916;-70
2023/09/07 04:35:16;;;;;;;;;;;15.90;67.90;;;;;;5093772;28;19964;-70
2023/09/07 04:37:43;;;;;;;;;;;15.90;67.90;;;;;;5093754;28;19912;-70
2023/09/07 04:40:09;;;;;;;;;;;15.90;67.90;;;;;;5092715;28;19922;-69
2023/09/07 04:42:35;;;;;;;;;;;16.00;67.60;;;;;;5076686;28;19935;-69
2023/09/07 04:45:03;;;;;;;;;;;16.00;67.70;;;;;;5076572;28;20353;-69
2023/09/07 04:47:28;;;;;;;;;;;16.00;68.00;;;;;;5093157;28;19912;-70
2023/09/07 04:49:54;;;;;;;;;;;16.00;68.60;;;;;;5093178;28;20035;-70
2023/09/07 04:52:20;;;;;;;;;;;15.90;68.10;;;;;;5093707;28;19947;-70
2023/09/07 04:54:46;;;;;;;;;;;15.90;68.10;;;;;;5093441;28;19920;-70
2023/09/07 04:57:15;;;;;;;;;;;15.90;68.40;;;;;;5092983;28;19947;-70
2023/09/07 04:59:41;;;;;;;;;;;15.90;68.50;;;;;;5093316;28;19923;-69
2023/09/07 05:02:07;;;;;;;;;;;15.80;68.20;;;;;;5093597;28;20010;-69
2023/09/07 05:04:33;;;;;;;;;;;15.90;68.30;;;;;;5093279;28;19919;-69
2023/09/07 05:06:59;;;;;;;;;;;15.90;68.40;;;;;;5093934;28;19916;-69
2023/09/07 05:09:25;;;;;;;;;;;15.90;68.50;;;;;;5094735;28;19924;-69
2023/09/07 05:11:52;;;;;;;;;;;15.90;68.30;;;;;;5091925;28;20403;-70
2023/09/07 05:14:18;;;;;;;;;;;15.90;68.40;;;;;;5094063;28;20384;-69
2023/09/07 05:16:44;;;;;;;;;;;16.00;68.50;;;;;;5094091;28;19962;-70
2023/09/07 05:19:10;;;;;;;;;;;16.00;69.00;;;;;;5094281;28;19922;-70
2023/09/07 05:21:36;;;;;;;;;;;16.00;68.10;;;;;;5093136;28;19920;-70
2023/09/07 05:24:02;;;;;;;;;;;16.00;68.60;;;;;;5094381;28;20003;-70
2023/09/07 05:26:28;;;;;;;;;;;16.10;68.90;;;;;;5075383;28;19965;-69
2023/09/07 05:28:54;;;;;;;;;;;16.10;68.70;;;;;;5092494;28;20007;-69
2023/09/07 05:31:20;;;;;;;;;;;16.20;69.50;;;;;;5074792;28;19920;-70
2023/09/07 05:33:45;;;;;;;;;;;16.20;69.60;;;;;;5094084;28;19999;-70
2023/09/07 05:36:11;;;;;;;;;;;16.30;69.50;;;;;;5092010;28;19916;-69
2023/09/07 05:38:37;;;;;;;;;;;16.30;69.40;;;;;;5092529;28;19969;-70
2023/09/07 05:41:03;;;;;;;;;;;16.30;70.10;;;;;;5092821;28;20376;-70
2023/09/07 05:43:29;;;;;;;;;;;16.40;70.00;;;;;;5093865;28;19973;-69
2023/09/07 05:45:55;;;;;;;;;;;16.40;70.00;;;;;;5093213;28;20297;-69
2023/09/07 05:48:21;;;;;;;;;;;16.50;70.20;;;;;;5075335;28;19973;-69
2023/09/07 05:50:47;;;;;;;;;;;16.50;70.80;;;;;;5091245;28;19950;-70
2023/09/07 05:53:13;;;;;;;;;;;16.50;71.50;;;;;;5092267;28;19920;-70
2023/09/07 05:55:39;;;;;;;;;;;16.50;71.50;;;;;;5074826;28;19922;-70
2023/09/07 05:58:06;;;;;;;;;;;16.60;72.80;;;;;;5092082;28;20002;-69
2023/09/07 06:00:33;;;;;;;;;;;16.60;72.50;;;;;;5091212;28;20424;-70
2023/09/07 06:02:59;;;;;;;;;;;16.70;72.00;;;;;;5093541;28;19923;-70
2023/09/07 06:05:25;;;;;;;;;;;16.80;72.20;;;;;;5091840;28;19935;-70
2023/09/07 06:07:51;;;;;;;;;;;16.80;72.80;;;;;;5091873;28;20349;-70
2023/09/07 06:10:19;;;;;;;;;;;16.90;72.70;;;;;;5092259;28;19912;-70
2023/09/07 06:12:45;;;;;;;;;;;17.00;72.30;;;;;;5093223;28;19916;-70
2023/09/07 06:15:11;;;;;;;;;;;17.10;72.80;;;;;;5091332;28;19935;-69
2023/09/07 06:17:37;;;;;;;;;;;17.20;74.10;;;;;;5075316;28;19951;-70
2023/09/07 06:20:03;;;;;;;;;;;17.30;73.50;;;;;;5091678;28;20002;-69
2023/09/07 06:22:29;;;;;;;;;;;17.50;73.40;;;;;;5090643;28;19916;-70
2023/09/07 06:24:55;;;;;;;;;;;17.70;73.50;;;;;;5074730;28;20266;-70
2023/09/07 06:27:20;;;;;;;;;;;17.90;72.80;;;;;;5090924;28;19912;-70
2023/09/07 06:29:46;;;;;;;;;;;18.00;72.90;;;;;;5092784;28;20015;-69
2023/09/07 06:32:12;;;;;;;;;;;18.10;72.90;;;;;;5091967;28;20006;-69
2023/09/07 06:34:39;;;;;;;;;;;18.30;73.20;;;;;;5091731;28;19924;-69
2023/09/07 06:37:05;;;;;;;;;;;18.40;73.70;;;;;;5091177;28;20208;-69
2023/09/07 06:39:30;;;;;;;;;;;18.50;72.50;;;;;;5091674;28;19977;-69
2023/09/07 06:41:56;;;;;;;;;;;18.70;72.20;;;;;;5090436;28;20334;-70
2023/09/07 06:44:22;;;;;;;;;;;18.70;71.70;;;;;;5093023;28;19920;-70
2023/09/07 06:46:49;;;;;;;;;;;18.90;71.70;;;;;;5092013;28;20357;-69
2023/09/07 06:49:15;;;;;;;;;;;19.00;71.50;;;;;;5091243;28;19927;-70
2023/09/07 06:51:41;;;;;;;;;;;19.20;71.50;;;;;;5090347;28;19915;-69
2023/09/07 06:54:07;;;;;;;;;;;19.30;71.30;;;;;;5091284;28;20007;-69
2023/09/07 06:56:34;;;;;;;;;;;19.50;70.80;;;;;;5091964;28;19912;-70
2023/09/07 06:59:00;;;;;;;;;;;19.60;70.30;;;;;;5091149;28;19946;-70
2023/09/07 07:01:26;;;;;;;;;;;19.80;69.70;;;;;;5090138;28;19998;-70
2023/09/07 07:03:53;;;;;;;;;;;20.00;69.60;;;;;;5092620;28;19920;-70
2023/09/07 07:06:19;;;;;;;;;;;20.20;69.80;;;;;;5092241;28;19962;-69
2023/09/07 07:08:45;;;;;;;;;;;20.30;69.60;;;;;;5090721;28;20011;-70
2023/09/07 07:11:11;;;;;;;;;;;20.50;69.50;;;;;;5091534;28;20012;-70
2023/09/07 07:13:37;;;;;;;;;;;20.70;68.90;;;;;;5090996;28;20022;-69
2023/09/07 07:16:04;;;;;;;;;;;20.90;68.70;;;;;;5091805;28;20135;-70
2023/09/07 07:18:30;;;;;;;;;;;21.10;67.90;;;;;;5091235;28;19919;-69
2023/09/07 07:20:56;;;;;;;;;;;21.30;66.80;;;;;;5090060;28;19923;-70
2023/09/07 07:23:22;;;;;;;;;;;21.90;66.00;;;;;;5092447;28;20011;-69
2023/09/07 07:25:48;;;;;;;;;;;22.60;64.60;;;;;;5091803;28;20444;-70
2023/09/07 07:28:13;;;;;;;;;;;23.30;62.80;;;;;;5091789;28;20018;-70
2023/09/07 07:30:43;;;;;;;;;;;24.00;61.40;;;;;;5091037;28;19923;-70
2023/09/07 07:33:11;;;;;;;;;;;24.60;58.40;;;;;;5090898;28;19927;-69
2023/09/07 07:35:37;;;;;;;;;;;25.30;56.30;;;;;;5092428;28;19912;-70
2023/09/07 07:38:03;;;;;;;;;;;26.00;54.40;;;;;;5077861;28;19920;-71
2023/09/07 07:40:30;;;;;;;;;;;26.50;51.10;;;;;;5093949;28;19916;-72
2023/09/07 07:42:56;;;;;;;;;;;27.10;48.80;;;;;;5096069;28;20344;-71
2023/09/07 07:45:22;;;;;;;;;;;27.70;46.80;;;;;;5094356;28;19916;-72
2023/09/07 07:48:07;;;;;;;;;;;28.30;45.00;;;;;;5094824;28;20436;-72
2023/09/07 07:50:38;;;;;;;;;;;28.90;40.70;;;;;;5094982;28;19920;-72
2023/09/07 07:53:04;;;;;;;;;;;29.40;40.50;;;;;;5095976;28;19927;-72
2023/09/07 07:55:30;;;;;;;;;;;30.00;38.30;;;;;;5095277;28;20009;-71
2023/09/07 07:57:56;;;;;;;;;;;30.40;36.80;;;;;;5094539;28;20007;-72
2023/09/07 08:00:21;;;;;;;;;;;31.00;36.00;;;;;;5093552;28;20351;-72
2023/09/07 08:02:47;;;;;;;;;;;31.40;34.80;;;;;;5094530;28;19919;-71
2023/09/07 08:05:14;;;;;;;;;;;31.90;34.00;;;;;;5095433;28;19963;-72
2023/09/07 08:07:40;;;;;;;;;;;32.40;31.90;;;;;;5094290;28;19916;-72
2023/09/07 08:10:06;;;;;;;;;;;32.80;30.40;;;;;;5093651;28;20333;-71
2023/09/07 08:12:32;;;;;;;;;;;33.30;30.50;;;;;;5095675;28;20017;-72
2023/09/07 08:14:58;;;;;;;;;;;33.80;29.70;;;;;;5095336;28;19937;-71
2023/09/07 08:17:24;;;;;;;;;;;34.20;28.90;;;;;;5093861;28;20311;-72
2023/09/07 08:19:55;;;;;;;;;;;34.70;28.30;;;;;;5095682;28;19950;-71
2023/09/07 08:22:21;;;;;;;;;;;35.20;27.90;;;;;;5094459;28;19916;-71
2023/09/07 08:24:48;;;;;;;;;;;35.70;27.00;;;;;;5094202;28;19942;-72
2023/09/07 08:27:18;;;;;;;;;;;36.20;26.40;;;;;;5094783;28;20029;-72
2023/09/07 08:29:48;;;;;;;;;;;36.60;24.40;;;;;;5094976;28;19924;-72
2023/09/07 08:32:14;;;;;;;;;;;36.60;23.50;;;;;;5093067;28;19924;-73
2023/09/07 08:34:41;;;;;;;;;;;37.00;23.50;;;;;;5094023;28;19920;-70
2023/09/07 08:37:10;;;;;;;;;;;37.30;22.90;;;;;;5094563;28;19919;-71
2023/09/07 08:39:36;;;;;;;;;;;37.60;22.20;;;;;;5095387;28;19924;-71
2023/09/07 08:42:04;;;;;;;;;;;38.00;22.50;;;;;;5092658;28;19942;-72
2023/09/07 08:44:32;;;;;;;;;;;38.30;21.60;;;;;;5093865;28;20276;-72
2023/09/07 08:47:00;;;;;;;;;;;38.60;21.30;;;;;;5092897;28;20266;-72
2023/09/07 08:49:25;;;;;;;;;;;39.20;21.20;;;;;;5093572;28;19926;-71
2023/09/07 08:51:51;;;;;;;;;;;39.50;20.40;;;;;;5075585;28;19920;-72
2023/09/07 08:54:18;;;;;;;;;;;39.90;19.90;;;;;;5093538;28;19931;-72
2023/09/07 08:56:45;;;;;;;;;;;40.20;19.80;;;;;;5094253;28;19955;-71
2023/09/07 08:59:11;;;;;;;;;;;40.60;19.40;;;;;;5093321;28;19916;-72
2023/09/07 09:01:37;;;;;;;;;;;41.10;19.50;;;;;;5093618;28;19923;-72
2023/09/07 09:04:03;;;;;;;;;;;41.50;18.80;;;;;;5093057;28;19923;-72
2023/09/07 09:06:29;;;;;;;;;;;41.60;18.00;;;;;;5094038;28;19916;-72
2023/09/07 09:08:57;;;;;;;;;;;41.90;18.00;;;;;;5093177;28;20375;-73
2023/09/07 09:11:24;;;;;;;;;;;42.20;18.00;;;;;;5092087;28;19926;-73
2023/09/07 09:13:53;;;;;;;;;;;42.70;17.60;;;;;;5093094;28;19981;-72
2023/09/07 09:16:19;;;;;;;;;;;43.10;17.50;;;;;;5092758;28;20386;-71
2023/09/07 09:19:04;;;;;;;;;;;43.50;16.50;;;;;;5094384;28;20257;-71
2023/09/07 09:21:29;;;;;;;;;;;43.90;16.40;;;;;;5093405;28;19920;-71
2023/09/07 09:23:57;;;;;;;;;;;44.30;16.30;;;;;;5093059;28;19916;-72
2023/09/07 09:26:23;;;;;;;;;;;44.70;16.10;;;;;;5092452;28;19931;-72
2023/09/07 09:28:52;;;;;;;;;;;45.00;16.00;;;;;;5092608;28;20129;-72
2023/09/07 09:31:18;;;;;;;;;;;45.50;15.80;;;;;;5075236;28;20257;-72
2023/09/07 09:33:48;;;;;;;;;;;45.80;15.20;;;;;;5063934;28;19951;-71
2023/09/07 09:36:14;;;;;;;;;;;46.00;15.00;;;;;;5071009;28;19916;-71
2023/09/07 09:38:40;;;;;;;;;;;46.20;15.10;;;;;;5072236;28;19921;-72
2023/09/07 09:41:06;;;;;;;;;;;46.60;14.80;;;;;;5071298;28;20353;-72
2023/09/07 09:43:32;;;;;;;;;;;47.00;14.10;;;;;;5055672;28;19928;-73
2023/09/07 09:45:59;;;;;;;;;;;47.30;14.20;;;;;;5071966;28;19912;-72
2023/09/07 09:48:27;;;;;;;;;;;47.50;14.00;;;;;;5072101;28;19967;-72
2023/09/07 09:50:53;;;;;;;;;;;47.80;13.80;;;;;;5071358;28;19962;-72
2023/09/07 09:53:20;;;;;;;;;;;48.00;13.80;;;;;;5055623;28;20015;-71
2023/09/07 09:55:47;;;;;;;;;;;48.40;13.10;;;;;;5071592;28;19912;-71
2023/09/07 09:58:33;;;;;;;;;;;48.60;12.70;;;;;;5072503;28;19920;-72
2023/09/07 10:01:00;;;;;;;;;;;48.90;12.70;;;;;;5072109;28;19917;-71
2023/09/07 10:03:48;;;;;;;;;;;49.00;13.00;;;;;;5071828;28;19924;-71
2023/09/07 10:06:33;;;;;;;;;;;49.50;12.50;;;;;;5071393;28;20467;-72
2023/09/07 10:09:03;;;;;;;;;;;49.80;12.60;;;;;;5073045;28;19959;-71
2023/09/07 10:11:31;;;;;;;;;;;50.00;12.50;;;;;;5070838;28;19916;-71
2023/09/07 10:14:17;;;;;;;;;;;50.20;11.90;;;;;;5061418;28;19921;-71
2023/09/07 10:17:04;;;;;;;;;;;50.30;12.10;;;;;;5052412;28;19971;-71
2023/09/07 10:19:30;;;;;;;;;;;50.70;11.90;;;;;;5051780;28;19921;-71
2023/09/07 10:21:56;;;;;;;;;;;50.80;11.70;;;;;;5050900;28;19916;-71
2023/09/07 10:24:46;;;;;;;;;;;50.80;11.40;;;;;;5051756;28;20370;-72
2023/09/07 10:27:12;;;;;;;;;;;51.30;12.10;;;;;;5050932;28;19923;-72
2023/09/07 10:29:57;;;;;;;;;;;51.50;11.80;;;;;;5052704;28;19964;-72
2023/09/07 10:32:24;;;;;;;;;;;51.70;11.10;;;;;;5050604;28;19920;-71
2023/09/07 10:34:50;;;;;;;;;;;51.70;11.10;;;;;;5053083;28;19927;-72
2023/09/07 10:37:16;;;;;;;;;;;50.90;11.00;;;;;;5052125;28;19912;-71
2023/09/07 10:39:44;;;;;;;;;;;49.30;12.30;;;;;;5052812;28;20007;-71
2023/09/07 10:42:23;;;;;;;;;;;48.20;13.00;;;;;;5016166;28;19979;-71
2023/09/07 10:44:49;;;;;;;;;;;47.50;13.50;;;;;;5031466;28;20431;-72
2023/09/07 10:47:15;;;;;;;;;;;48.50;12.60;;;;;;5030808;28;20407;-71
2023/09/07 10:49:41;;;;;;;;;;;49.40;12.10;;;;;;5031271;28;19921;-72
2023/09/07 10:52:08;;;;;;;;;;;48.80;12.10;;;;;;5048579;28;20287;-71
2023/09/07 10:54:34;;;;;;;;;;;47.50;13.10;;;;;;5051174;28;19928;-71
2023/09/07 10:57:08;;;;;;;;;;;46.80;13.50;;;;;;5050678;28;19920;-72
2023/09/07 10:59:34;;;;;;;;;;;47.00;13.60;;;;;;5051075;28;20447;-72
2023/09/07 11:02:18;;;;;;;;;;;47.90;12.80;;;;;;5051999;28;19929;-71
2023/09/07 11:04:44;;;;;;;;;;;47.80;12.50;;;;;;5063661;28;19971;-72
2023/09/07 11:07:10;;;;;;;;;;;47.00;13.40;;;;;;5071664;28;19919;-72
2023/09/07 11:09:56;;;;;;;;;;;45.70;13.50;;;;;;5071183;28;19920;-71
2023/09/07 11:12:22;;;;;;;;;;;45.10;14.60;;;;;;5072552;28;20335;-71
2023/09/07 11:14:48;;;;;;;;;;;46.70;13.50;;;;;;5091087;28;19964;-72
2023/09/07 11:17:14;;;;;;;;;;;48.40;13.00;;;;;;5091781;28;20319;-71
2023/09/07 11:19:40;;;;;;;;;;;49.50;12.10;;;;;;5090915;28;19931;-72
2023/09/07 11:22:09;;;;;;;;;;;50.40;11.40;;;;;;5091354;28;20311;-72
2023/09/07 11:24:37;;;;;;;;;;;51.10;11.10;;;;;;5092509;28;19920;-72
2023/09/07 11:27:03;;;;;;;;;;;51.90;10.70;;;;;;5090413;28;19919;-72
2023/09/07 11:29:32;;;;;;;;;;;52.10;11.00;;;;;;5073805;28;19931;-71
2023/09/07 11:32:21;;;;;;;;;;;52.50;10.90;;;;;;5091236;28;19916;-71
2023/09/07 11:35:07;;;;;;;;;;;52.80;10.40;;;;;;5092498;28;19930;-71
2023/09/07 11:37:34;;;;;;;;;;;52.80;10.00;;;;;;5090909;28;19919;-72
2023/09/07 11:40:04;;;;;;;;;;;51.60;10.30;;;;;;5091892;28;19919;-72
2023/09/07 11:42:30;;;;;;;;;;;51.10;11.10;;;;;;5073729;28;19942;-71
2023/09/07 11:44:56;;;;;;;;;;;50.90;10.70;;;;;;5090798;28;19916;-71
2023/09/07 11:47:22;;;;;;;;;;;50.40;11.50;;;;;;5091696;28;19964;-72
2023/09/07 11:49:49;;;;;;;;;;;50.30;12.10;;;;;;5092478;28;20337;-71
2023/09/07 11:52:15;;;;;;;;;;;49.90;11.80;;;;;;5091057;28;20011;-71
2023/09/07 11:54:40;;;;;;;;;;;50.60;11.40;;;;;;5090911;28;19967;-72
2023/09/07 11:57:06;;;;;;;;;;;51.30;11.10;;;;;;5073264;28;19938;-71
2023/09/07 11:59:34;;;;;;;;;;;51.30;10.40;;;;;;5090650;28;19928;-71
2023/09/07 12:02:00;;;;;;;;;;;49.40;11.00;;;;;;5089866;28;19985;-72
2023/09/07 12:04:26;;;;;;;;;;;47.80;12.10;;;;;;5090788;28;20379;-71
2023/09/07 12:06:52;;;;;;;;;;;47.80;12.40;;;;;;5091368;28;19981;-72
2023/09/07 12:09:18;;;;;;;;;;;49.20;12.10;;;;;;5090640;28;20381;-71
2023/09/07 12:11:43;;;;;;;;;;;49.80;10.90;;;;;;5091186;28;20431;-71
2023/09/07 12:14:09;;;;;;;;;;;49.10;11.20;;;;;;5090493;28;19923;-71
2023/09/07 12:16:35;;;;;;;;;;;47.80;11.50;;;;;;5090095;28;19966;-72
2023/09/07 12:19:01;;;;;;;;;;;47.20;11.90;;;;;;5091823;28;19931;-72
2023/09/07 12:21:27;;;;;;;;;;;46.00;12.70;;;;;;5092172;28;20281;-72
2023/09/07 12:23:53;;;;;;;;;;;45.30;13.40;;;;;;5094061;28;20014;-72
2023/09/07 12:26:20;;;;;;;;;;;47.00;13.00;;;;;;5094865;28;19973;-71
2023/09/07 12:28:47;;;;;;;;;;;49.00;11.90;;;;;;5093660;28;19920;-71
2023/09/07 12:31:14;;;;;;;;;;;50.60;10.30;;;;;;5092946;28;19970;-72
2023/09/07 12:33:39;;;;;;;;;;;51.70;9.50;;;;;;5095246;28;19927;-71
2023/09/07 12:36:09;;;;;;;;;;;52.60;9.00;;;;;;5094655;28;20006;-71
2023/09/07 12:38:35;;;;;;;;;;;52.80;8.70;;;;;;5077334;28;19928;-72
2023/09/07 12:41:00;;;;;;;;;;;53.20;9.00;;;;;;5092825;28;20331;-72
2023/09/07 12:43:26;;;;;;;;;;;53.70;8.60;;;;;;5095111;28;19926;-72
2023/09/07 12:45:52;;;;;;;;;;;54.20;8.80;;;;;;5094642;28;19962;-72
2023/09/07 12:48:19;;;;;;;;;;;54.50;7.60;;;;;;5094793;28;19920;-71
2023/09/07 12:50:45;;;;;;;;;;;54.70;7.90;;;;;;5075600;28;19919;-72
2023/09/07 12:53:11;;;;;;;;;;;54.90;7.90;;;;;;5094915;28;20019;-71
2023/09/07 12:55:37;;;;;;;;;;;54.30;8.30;;;;;;5093075;28;19938;-72
2023/09/07 12:58:03;;;;;;;;;;;54.60;8.20;;;;;;5093475;28;19928;-72
2023/09/07 13:00:29;;;;;;;;;;;54.80;7.60;;;;;;5075447;28;19951;-71
2023/09/07 13:02:56;;;;;;;;;;;55.10;8.40;;;;;;5094639;28;19927;-70
2023/09/07 13:05:22;;;;;;;;;;;55.50;7.60;;;;;;5092870;28;19912;-71
2023/09/07 13:07:48;;;;;;;;;;;56.00;8.00;;;;;;5093416;28;19912;-71
2023/09/07 13:10:14;;;;;;;;;;;56.00;8.40;;;;;;5092225;28;19923;-71
2023/09/07 13:12:41;;;;;;;;;;;56.20;8.30;;;;;;5093249;28;19912;-71
2023/09/07 13:15:07;;;;;;;;;;;56.50;7.80;;;;;;5094121;28;19912;-71
2023/09/07 13:17:33;;;;;;;;;;;56.30;7.50;;;;;;5094290;28;19922;-72
2023/09/07 13:19:59;;;;;;;;;;;56.40;7.60;;;;;;5092965;28;19912;-70
2023/09/07 13:22:25;;;;;;;;;;;56.50;7.90;;;;;;5093411;28;19916;-72
2023/09/07 13:24:51;;;;;;;;;;;56.80;7.20;;;;;;5092903;28;19926;-72
2023/09/07 13:27:17;;;;;;;;;;;56.60;7.30;;;;;;5092413;28;19912;-70
2023/09/07 13:29:43;;;;;;;;;;;56.40;7.40;;;;;;5094025;28;19930;-72
2023/09/07 13:32:09;;;;;;;;;;;56.60;7.20;;;;;;5091257;28;20011;-72
2023/09/07 13:34:35;;;;;;;;;;;56.80;7.30;;;;;;5092385;28;19931;-70
2023/09/07 13:37:00;;;;;;;;;;;56.80;7.10;;;;;;5092219;28;20006;-72
2023/09/07 13:39:27;;;;;;;;;;;56.90;7.40;;;;;;5094333;28;19920;-72
2023/09/07 13:41:53;;;;;;;;;;;57.10;7.70;;;;;;5091747;28;19916;-71
2023/09/07 13:44:18;;;;;;;;;;;56.70;7.10;;;;;;5094164;28;20403;-72
2023/09/07 13:46:45;;;;;;;;;;;56.30;7.60;;;;;;5092127;28;19916;-72
2023/09/07 13:49:11;;;;;;;;;;;56.10;7.30;;;;;;5093829;28;19920;-72
2023/09/07 13:51:39;;;;;;;;;;;56.00;7.40;;;;;;5091574;28;20007;-71
2023/09/07 13:54:05;;;;;;;;;;;56.10;7.70;;;;;;5093409;28;19931;-70
2023/09/07 13:56:32;;;;;;;;;;;56.10;7.70;;;;;;5091754;28;19927;-70
2023/09/07 13:58:58;;;;;;;;;;;55.90;7.40;;;;;;5093659;28;20368;-70
2023/09/07 14:01:24;;;;;;;;;;;55.90;7.50;;;;;;5091336;28;19922;-71
2023/09/07 14:03:50;;;;;;;;;;;55.70;7.30;;;;;;5093516;28;19946;-72
2023/09/07 14:06:17;;;;;;;;;;;55.80;7.40;;;;;;5092965;28;19923;-70
2023/09/07 14:08:45;;;;;;;;;;;55.60;7.20;;;;;;5093317;28;20399;-71
2023/09/07 14:11:10;;;;;;;;;;;55.20;7.90;;;;;;5092138;28;19916;-72
2023/09/07 14:13:36;;;;;;;;;;;55.00;7.70;;;;;;5092143;28;19920;-72
2023/09/07 14:16:02;;;;;;;;;;;55.00;8.00;;;;;;5092737;28;20288;-71
2023/09/07 14:18:28;;;;;;;;;;;54.90;7.10;;;;;;5093257;28;20523;-71
2023/09/07 14:20:57;;;;;;;;;;;55.00;8.10;;;;;;5073835;28;19999;-71
2023/09/07 14:26:27;;;;;;;;;;;54.20;8.00;;;;;;5092626;28;20388;-72